LFAC METAR and TAF | Updated Today

LFAC METAR

Calais-Dunkerque Airport

Observation time: 79 min. ago

LFAC 052000Z AUTO 04010KT 9999 BKN021 OVC210 06/04 Q1044

Need help? Read our tutorial on how to read METARs or read the parsed version below.

Calais-Dunkerque Airport (LFAC) METAR

  • Weather conditions on Sun, 05 Feb 2023 20:00:00 +0000 (79 min. ago):
  • Present conditions: Dry
  • Clouds: Broken sky at 640 meters; overcast sky at 6401 meters
  • Visibility: Greater than 10 km
  • Wind: 40 degrees at 10 knots
  • Temperature: 6 celsius
  • Dew point: 4 celsius
  • Pressure: 1044 millibars
  • Remarks: None


Useful to know...

  • Codes: LFAC/CQF
  • Airport elevation: 12ft
  • Municipality: Calais/Dunkerque
  • Country: France
  • Continent: Europe